Time;durP1;ratioP1;P1;durP2;ratioP2;P2;SDS_P1;SDS_P2;PMS_P1;PMS_P2;Temp;Humidity;BMP_temperature;BMP_pressure;BME280_temperature;BME280_humidity;BME280_pressure;Samples;Min_cycle;Max_cycle;Signal;HPM_P1;HPM_P2
2023/02/06 00:00:48;;;;;;;10.10;6.55;;;3.80;99.90;;;;;;4974879;28;20496;-74
2023/02/06 00:03:15;;;;;;;9.88;6.38;;;3.80;99.90;;;;;;4975098;28;20329;-75
2023/02/06 00:05:42;;;;;;;9.55;6.07;;;3.80;99.90;;;;;;4943507;29;20066;-76
2023/02/06 00:08:09;;;;;;;9.38;6.63;;;3.80;99.90;;;;;;4944225;28;20059;-75
2023/02/06 00:10:36;;;;;;;10.30;6.95;;;3.80;99.90;;;;;;4943853;28;20051;-75
2023/02/06 00:13:02;;;;;;;9.27;6.15;;;3.80;99.90;;;;;;4942893;28;20153;-75
2023/02/06 00:15:32;;;;;;;10.80;6.13;;;3.80;99.90;;;;;;4959168;28;20067;-74
2023/02/06 00:17:59;;;;;;;9.85;7.30;;;3.70;99.90;;;;;;4974703;28;20086;-74
2023/02/06 00:20:25;;;;;;;11.10;6.85;;;3.70;99.90;;;;;;4944919;28;20546;-74
2023/02/06 00:22:52;;;;;;;8.07;5.35;;;3.80;99.90;;;;;;4943944;28;20081;-74
2023/02/06 00:25:19;;;;;;;8.70;5.80;;;3.80;99.90;;;;;;4958693;28;20043;-76
2023/02/06 00:27:45;;;;;;;10.48;6.07;;;3.80;99.90;;;;;;4942441;28;20054;-76
2023/02/06 00:30:12;;;;;;;10.43;5.50;;;3.80;99.90;;;;;;4943304;28;20189;-76
2023/02/06 00:32:39;;;;;;;6.97;4.82;;;3.80;99.90;;;;;;4959659;28;20141;-77
2023/02/06 00:35:06;;;;;;;11.48;6.15;;;3.90;99.90;;;;;;4974070;28;20294;-76
2023/02/06 00:37:33;;;;;;;9.38;6.05;;;3.80;99.90;;;;;;4944691;29;20123;-76
2023/02/06 00:40:00;;;;;;;7.88;4.93;;;3.80;99.90;;;;;;4974815;28;20067;-76
2023/02/06 00:42:27;;;;;;;8.95;5.72;;;3.80;99.90;;;;;;4974230;28;20044;-76
2023/02/06 00:44:53;;;;;;;10.70;5.65;;;3.80;99.90;;;;;;4941757;28;20062;-76
2023/02/06 00:47:20;;;;;;;6.88;4.65;;;3.80;99.90;;;;;;4942755;28;20133;-76
2023/02/06 00:49:47;;;;;;;8.27;5.43;;;3.80;99.90;;;;;;4974592;28;20259;-76
2023/02/06 00:52:13;;;;;;;7.00;4.63;;;3.70;99.90;;;;;;4974467;28;20057;-76
2023/02/06 00:54:40;;;;;;;8.32;4.90;;;3.70;99.90;;;;;;4943428;28;20388;-76
2023/02/06 00:57:07;;;;;;;10.70;5.50;;;3.70;99.90;;;;;;4941989;28;20061;-76
2023/02/06 00:59:33;;;;;;;7.93;4.25;;;3.70;99.90;;;;;;4957195;28;20043;-76
2023/02/06 01:02:00;;;;;;;8.23;4.15;;;3.70;99.90;;;;;;4942045;29;20535;-76
2023/02/06 01:04:27;;;;;;;5.93;3.88;;;3.60;99.90;;;;;;4926346;29;20055;-76
2023/02/06 01:06:54;;;;;;;7.78;4.00;;;3.60;99.90;;;;;;4958687;28;20274;-75
2023/02/06 01:09:20;;;;;;;6.35;3.60;;;3.70;99.90;;;;;;4943839;29;20047;-75
2023/02/06 01:11:47;;;;;;;6.72;3.72;;;3.60;99.90;;;;;;4974039;28;20142;-75
2023/02/06 01:14:14;;;;;;;7.20;4.40;;;3.60;99.90;;;;;;4942338;28;20327;-75
2023/02/06 01:16:41;;;;;;;7.03;3.53;;;3.70;99.90;;;;;;4943942;28;20111;-75
2023/02/06 01:19:08;;;;;;;8.25;4.25;;;3.70;99.90;;;;;;4958494;28;20146;-75
2023/02/06 01:21:35;;;;;;;6.10;3.63;;;3.70;99.90;;;;;;4974136;28;20687;-75
2023/02/06 01:24:02;;;;;;;5.43;3.15;;;3.70;99.90;;;;;;4941239;29;20138;-75
2023/02/06 01:26:29;;;;;;;6.13;3.80;;;3.70;99.90;;;;;;4956953;28;20043;-75
2023/02/06 01:28:55;;;;;;;5.47;3.30;;;3.80;99.90;;;;;;4957094;28;20142;-75
2023/02/06 01:31:25;;;;;;;6.45;3.28;;;3.80;99.90;;;;;;4942186;29;20057;-75
2023/02/06 01:33:51;;;;;;;5.93;3.25;;;3.80;99.90;;;;;;4956739;28;20055;-75
2023/02/06 01:36:19;;;;;;;5.38;3.55;;;3.80;99.90;;;;;;4956811;28;20047;-74
2023/02/06 01:38:46;;;;;;;6.75;3.90;;;3.80;99.90;;;;;;4973547;28;20079;-75
2023/02/06 01:41:13;;;;;;;4.68;2.88;;;3.80;99.90;;;;;;4942851;28;20137;-75
2023/02/06 01:43:45;;;;;;;5.82;3.28;;;3.80;99.90;;;;;;4955538;28;20057;-75
2023/02/06 01:46:12;;;;;;;4.83;3.67;;;3.80;99.90;;;;;;4956979;28;20608;-75
2023/02/06 01:48:47;;;;;;;5.68;3.55;;;3.80;99.90;;;;;;4942215;29;20061;-75
2023/02/06 01:51:18;;;;;;;4.57;3.30;;;3.80;99.90;;;;;;4927244;29;20399;-75
2023/02/06 01:53:47;;;;;;;7.18;3.65;;;3.80;99.90;;;;;;4926444;29;20400;-74
2023/02/06 01:56:18;;;;;;;4.88;3.35;;;3.80;99.90;;;;;;4925192;29;20043;-75
2023/02/06 01:58:56;;;;;;;5.55;3.17;;;3.80;99.90;;;;;;4971498;28;20061;-75
2023/02/06 02:01:23;;;;;;;7.35;3.50;;;3.80;99.90;;;;;;4943125;28;20139;-75
2023/02/06 02:03:51;;;;;;;5.53;3.58;;;3.80;99.90;;;;;;4959790;28;20574;-75
2023/02/06 02:06:21;;;;;;;7.32;3.55;;;3.80;99.90;;;;;;4957750;28;20488;-75
2023/02/06 02:08:49;;;;;;;8.10;3.65;;;3.80;99.90;;;;;;4973196;28;20307;-74
2023/02/06 02:11:21;;;;;;;7.38;4.25;;;3.80;99.90;;;;;;4957205;28;20431;-74
2023/02/06 02:13:49;;;;;;;6.05;3.53;;;3.90;99.90;;;;;;4956089;28;20500;-74
2023/02/06 02:16:45;;;;;;;6.28;3.88;;;3.80;99.90;;;;;;4957161;28;20415;-74
2023/02/06 02:19:50;;;;;;;9.50;4.88;;;3.70;99.90;;;;;;4964148;28;20117;-74
2023/02/06 02:22:29;;;;;;;;;;;3.70;99.90;;;;;;4970354;28;20263;-74
2023/02/06 02:25:20;;;;;;;8.48;4.43;;;3.80;99.90;;;;;;4942289;29;20296;-74
2023/02/06 02:28:12;;;;;;;8.18;4.15;;;3.80;99.90;;;;;;4940334;29;20091;-74
2023/02/06 02:31:16;;;;;;;6.32;3.85;;;3.80;99.90;;;;;;4938789;28;20190;-74
2023/02/06 02:34:05;;;;;;;5.38;3.28;;;3.80;99.90;;;;;;4954172;28;20363;-74
2023/02/06 02:36:47;;;;;;;7.57;4.05;;;3.80;99.90;;;;;;4951087;28;20050;-74
2023/02/06 02:39:20;;;;;;;6.15;4.00;;;3.80;99.90;;;;;;4977101;28;20049;-74
2023/02/06 02:41:51;;;;;;;6.03;3.80;;;3.80;99.90;;;;;;4944823;29;20067;-75
2023/02/06 02:44:24;;;;;;;5.80;3.97;;;3.80;99.90;;;;;;4959273;28;20075;-74
2023/02/06 02:46:51;;;;;;;6.22;3.92;;;3.80;99.90;;;;;;4976331;28;20679;-75
2023/02/06 02:49:24;;;;;;;6.78;3.75;;;3.80;99.90;;;;;;4976292;28;20367;-74
2023/02/06 02:51:51;;;;;;;7.35;3.65;;;3.70;99.90;;;;;;4944735;29;20078;-75
2023/02/06 02:54:18;;;;;;;5.57;4.07;;;3.70;99.90;;;;;;4953599;28;20051;-74
2023/02/06 02:56:44;;;;;;;5.20;3.40;;;3.70;99.90;;;;;;4975928;28;20081;-74
2023/02/06 02:59:32;;;;;;;6.82;3.90;;;3.70;99.90;;;;;;4992822;28;20101;-74
2023/02/06 03:02:08;;;;;;;6.22;4.30;;;3.60;99.90;;;;;;4958690;28;20150;-75
2023/02/06 03:04:50;;;;;;;6.88;4.53;;;3.60;99.90;;;;;;4961506;28;20098;-75
2023/02/06 03:07:32;;;;;;;7.70;4.18;;;3.70;99.90;;;;;;4959018;28;20367;-76
2023/02/06 03:10:38;;;;;;;6.25;3.83;;;3.70;99.90;;;;;;4976335;28;20092;-74
2023/02/06 03:13:15;;;;;;;6.30;3.92;;;3.80;99.90;;;;;;4951352;28;20047;-74
2023/02/06 03:16:05;;;;;;;7.53;4.03;;;3.80;99.90;;;;;;4966605;28;20125;-74
2023/02/06 03:18:39;;;;;;;5.18;3.53;;;3.80;99.90;;;;;;4950684;28;20048;-74
2023/02/06 03:21:06;;;;;;;;;;;3.70;99.90;;;;;;4951565;28;20822;-75
2023/02/06 03:23:34;;;;;;;6.07;3.70;;;3.80;99.90;;;;;;4950602;28;19973;-74
2023/02/06 03:26:04;;;;;;;6.00;3.72;;;3.70;99.90;;;;;;4966890;28;20054;-74
2023/02/06 03:28:36;;;;;;;6.97;3.28;;;3.70;99.90;;;;;;4936528;28;20149;-75
2023/02/06 03:31:06;;;;;;;6.22;3.40;;;3.80;99.90;;;;;;4993567;28;20050;-74
2023/02/06 03:33:35;;;;;;;6.05;4.03;;;3.80;99.90;;;;;;4949836;28;20521;-74
2023/02/06 03:36:04;;;;;;;5.05;2.97;;;3.80;99.90;;;;;;4950084;29;20126;-74
2023/02/06 03:38:30;;;;;;;5.03;3.47;;;3.70;99.90;;;;;;4966154;28;20082;-74
2023/02/06 03:40:57;;;;;;;4.38;3.05;;;3.70;99.90;;;;;;4966146;28;20126;-74
2023/02/06 03:43:24;;;;;;;5.13;3.28;;;3.80;99.90;;;;;;4948069;29;20122;-74
2023/02/06 03:45:54;;;;;;;4.40;2.60;;;3.80;99.90;;;;;;4950960;28;20135;-74
2023/02/06 03:48:25;;;;;;;4.35;2.45;;;3.80;99.90;;;;;;4966197;28;20459;-74
2023/02/06 03:50:53;;;;;;;5.45;3.25;;;3.80;99.90;;;;;;4966064;28;20047;-74
2023/02/06 03:53:21;;;;;;;5.22;3.17;;;3.80;99.90;;;;;;4950330;29;20058;-74
2023/02/06 03:55:49;;;;;;;5.82;2.92;;;3.80;99.90;;;;;;4935090;28;20137;-74
2023/02/06 03:58:16;;;;;;;6.20;3.33;;;3.80;99.90;;;;;;4964826;28;20051;-74
2023/02/06 04:00:43;;;;;;;4.43;2.75;;;3.80;99.90;;;;;;4949972;28;20051;-75
2023/02/06 04:03:09;;;;;;;5.05;3.20;;;3.80;99.90;;;;;;4965177;28;20051;-75
2023/02/06 04:05:36;;;;;;;6.57;3.67;;;3.70;99.90;;;;;;4950055;29;20058;-75
2023/02/06 04:08:03;;;;;;;5.70;3.22;;;3.70;99.90;;;;;;4966146;28;20441;-75
2023/02/06 04:10:30;;;;;;;7.13;3.15;;;3.70;99.90;;;;;;4951054;28;20070;-75
2023/02/06 04:12:57;;;;;;;4.75;2.85;;;3.70;99.90;;;;;;4950565;28;20518;-75
2023/02/06 04:15:23;;;;;;;5.68;3.28;;;3.80;99.90;;;;;;4952356;29;20083;-75
2023/02/06 04:17:51;;;;;;;4.53;2.63;;;3.80;99.90;;;;;;4982529;28;20067;-75
2023/02/06 04:20:26;;;;;;;6.18;3.30;;;3.80;99.90;;;;;;4950844;28;20503;-75
2023/02/06 04:22:53;;;;;;;5.95;2.90;;;3.80;99.90;;;;;;4982681;28;20061;-75
2023/02/06 04:25:19;;;;;;;5.00;2.70;;;3.80;99.90;;;;;;4948581;28;20059;-74
2023/02/06 04:27:46;;;;;;;3.50;2.30;;;3.80;99.90;;;;;;4978766;28;20664;-74
2023/02/06 04:30:14;;;;;;;5.10;2.70;;;3.80;99.90;;;;;;4995363;28;20062;-74
2023/02/06 04:32:41;;;;;;;5.68;3.25;;;3.80;99.90;;;;;;4975311;28;20051;-75
2023/02/06 04:35:07;;;;;;;4.57;2.75;;;3.80;99.90;;;;;;4962342;28;20111;-75
2023/02/06 04:37:34;;;;;;;5.47;3.22;;;3.80;99.90;;;;;;4947660;29;20086;-75
2023/02/06 04:40:01;;;;;;;4.95;2.70;;;3.80;99.90;;;;;;4963505;28;20562;-75
2023/02/06 04:42:28;;;;;;;6.05;2.63;;;3.80;99.90;;;;;;4978982;28;20043;-74
2023/02/06 04:44:54;;;;;;;6.05;2.85;;;3.80;99.90;;;;;;4945864;29;20413;-75
2023/02/06 04:47:21;;;;;;;4.68;2.75;;;3.80;99.90;;;;;;4979188;28;20051;-74
2023/02/06 04:49:48;;;;;;;3.75;2.50;;;3.80;99.90;;;;;;4978444;28;20095;-75
2023/02/06 04:52:15;;;;;;;5.60;3.05;;;3.80;99.90;;;;;;4978834;28;20053;-74
2023/02/06 04:54:41;;;;;;;3.67;2.50;;;3.80;99.90;;;;;;4979258;28;20051;-76
2023/02/06 04:57:08;;;;;;;4.07;2.85;;;3.90;99.90;;;;;;4947733;29;20062;-74
2023/02/06 04:59:35;;;;;;;4.65;2.50;;;3.90;99.90;;;;;;4962001;28;20215;-74
2023/02/06 05:02:01;;;;;;;4.13;2.55;;;3.90;99.90;;;;;;4947939;29;20676;-75
2023/02/06 05:04:28;;;;;;;6.28;3.65;;;3.90;99.90;;;;;;4929743;29;20142;-75
2023/02/06 05:06:55;;;;;;;4.15;2.45;;;3.90;99.90;;;;;;4946882;29;20043;-74
2023/02/06 05:09:22;;;;;;;4.55;2.78;;;3.90;99.90;;;;;;4962243;28;20080;-74
2023/02/06 05:11:48;;;;;;;4.38;2.67;;;3.90;99.90;;;;;;4947773;29;20051;-74
2023/02/06 05:14:15;;;;;;;4.72;3.08;;;3.80;99.90;;;;;;4977273;28;20142;-74
2023/02/06 05:16:42;;;;;;;4.57;2.85;;;3.80;99.90;;;;;;4947861;29;20989;-74
2023/02/06 05:19:08;;;;;;;4.95;2.88;;;3.80;99.90;;;;;;4977820;28;20511;-74
2023/02/06 05:21:35;;;;;;;6.40;3.05;;;3.80;99.90;;;;;;4947668;28;20054;-74
2023/02/06 05:24:02;;;;;;;5.82;3.65;;;3.80;99.90;;;;;;4977806;28;20138;-74
2023/02/06 05:26:29;;;;;;;4.82;3.00;;;3.70;99.90;;;;;;4979016;28;20087;-75
2023/02/06 05:28:55;;;;;;;5.00;3.13;;;3.80;99.90;;;;;;4961017;28;20050;-75
2023/02/06 05:31:22;;;;;;;5.60;2.90;;;3.80;99.90;;;;;;4977885;28;20440;-75
2023/02/06 05:33:52;;;;;;;5.28;3.35;;;3.80;99.90;;;;;;4945385;28;20391;-74
2023/02/06 05:36:19;;;;;;;5.90;3.25;;;3.80;99.90;;;;;;4947105;28;20054;-75
2023/02/06 05:38:46;;;;;;;7.07;3.45;;;3.80;99.90;;;;;;4961641;28;20051;-74
2023/02/06 05:41:14;;;;;;;5.43;3.30;;;3.70;99.90;;;;;;4929141;29;20157;-75
2023/02/06 05:43:41;;;;;;;5.30;3.70;;;3.60;99.90;;;;;;4970957;28;20436;-75
2023/02/06 05:46:08;;;;;;;7.30;4.13;;;3.60;99.90;;;;;;4974314;28;20047;-74
2023/02/06 05:48:35;;;;;;;4.43;3.08;;;3.60;99.90;;;;;;4956445;28;20047;-74
2023/02/06 05:51:02;;;;;;;7.85;3.25;;;3.60;99.90;;;;;;4942280;28;20073;-74
2023/02/06 05:53:28;;;;;;;6.03;3.55;;;3.60;99.90;;;;;;4940448;29;20086;-75
2023/02/06 05:55:55;;;;;;;4.20;2.63;;;3.60;99.90;;;;;;4940762;28;20055;-75
2023/02/06 05:58:22;;;;;;;6.13;3.47;;;3.60;99.90;;;;;;4930275;29;20050;-75
2023/02/06 06:00:49;;;;;;;5.15;3.25;;;3.60;99.90;;;;;;4950094;28;20573;-73
2023/02/06 06:03:16;;;;;;;5.05;2.83;;;3.60;99.90;;;;;;4932961;28;20131;-74
2023/02/06 06:05:42;;;;;;;5.30;2.90;;;3.50;99.90;;;;;;4965125;28;20043;-76
2023/02/06 06:08:09;;;;;;;6.78;3.17;;;3.50;99.90;;;;;;4939115;28;20059;-75
2023/02/06 06:10:36;;;;;;;5.80;3.67;;;3.50;99.90;;;;;;4948658;28;20236;-74
2023/02/06 06:13:02;;;;;;;4.18;2.78;;;3.50;99.90;;;;;;4928403;28;20047;-75
2023/02/06 06:15:29;;;;;;;5.22;3.15;;;3.50;99.90;;;;;;4937626;28;20138;-75
2023/02/06 06:17:56;;;;;;;5.68;2.80;;;3.50;99.90;;;;;;4939413;28;20369;-75
2023/02/06 06:20:22;;;;;;;4.63;3.20;;;3.50;99.90;;;;;;4938522;29;20137;-75
2023/02/06 06:22:49;;;;;;;4.72;3.15;;;3.50;99.90;;;;;;4937885;28;20098;-74
2023/02/06 06:25:16;;;;;;;5.90;3.22;;;3.50;99.90;;;;;;4942252;28;20151;-75
2023/02/06 06:27:43;;;;;;;5.97;2.95;;;3.50;99.90;;;;;;4950419;28;20154;-74
2023/02/06 06:30:10;;;;;;;5.68;3.28;;;3.40;99.90;;;;;;4938629;28;20463;-74
2023/02/06 06:32:37;;;;;;;5.10;2.55;;;3.40;99.90;;;;;;4931566;28;20507;-76
2023/02/06 06:35:04;;;;;;;5.50;3.40;;;3.40;99.90;;;;;;4927902;29;20054;-76
2023/02/06 06:37:30;;;;;;;4.88;3.35;;;3.40;99.90;;;;;;4933310;29;20059;-76
2023/02/06 06:39:57;;;;;;;7.45;3.25;;;3.40;99.90;;;;;;4934957;28;20694;-75
2023/02/06 06:42:24;;;;;;;5.75;2.92;;;3.40;99.90;;;;;;4937122;28;20058;-75
2023/02/06 06:44:50;;;;;;;4.90;2.88;;;3.30;99.90;;;;;;4936068;29;20159;-75
2023/02/06 06:47:17;;;;;;;6.53;3.83;;;3.40;99.90;;;;;;4919683;29;20086;-76
2023/02/06 06:49:44;;;;;;;5.55;3.42;;;3.30;99.90;;;;;;4935917;28;20054;-75
2023/02/06 06:52:10;;;;;;;6.30;3.65;;;3.30;99.90;;;;;;4937873;28;20088;-76
2023/02/06 06:54:50;;;;;;;5.18;3.38;;;3.30;99.90;;;;;;4938659;28;20756;-75
2023/02/06 06:57:18;;;;;;;5.55;3.40;;;3.20;99.90;;;;;;4904267;29;20633;-77
2023/02/06 06:59:45;;;;;;;4.68;2.70;;;3.30;99.90;;;;;;4945460;28;20055;-77
2023/02/06 07:02:11;;;;;;;4.20;2.60;;;3.30;99.90;;;;;;4932948;28;20123;-77
2023/02/06 07:04:38;;;;;;;5.20;3.10;;;3.20;99.90;;;;;;4948605;28;20055;-76
2023/02/06 07:07:05;;;;;;;5.38;2.97;;;3.20;99.90;;;;;;4959705;28;20059;-76
2023/02/06 07:09:32;;;;;;;4.15;2.67;;;3.20;99.90;;;;;;4948822;28;20047;-77
2023/02/06 07:11:59;;;;;;;5.57;3.25;;;3.10;99.90;;;;;;4966895;28;20126;-77
2023/02/06 07:14:25;;;;;;;7.22;3.50;;;3.10;99.90;;;;;;4952348;28;20146;-76
2023/02/06 07:16:52;;;;;;;5.38;2.78;;;3.00;99.90;;;;;;4937072;29;20523;-76
2023/02/06 07:19:20;;;;;;;6.85;2.92;;;3.10;99.90;;;;;;4936448;29;20051;-77
2023/02/06 07:21:46;;;;;;;6.20;3.00;;;3.00;99.90;;;;;;4938736;28;20310;-77
2023/02/06 07:24:13;;;;;;;4.95;2.65;;;3.00;99.90;;;;;;4937804;28;20055;-78
2023/02/06 07:26:40;;;;;;;4.47;3.00;;;3.00;99.90;;;;;;4936619;29;20415;-78
2023/02/06 07:29:07;;;;;;;4.10;2.90;;;3.00;99.90;;;;;;4936029;29;20051;-77
2023/02/06 07:31:33;;;;;;;4.75;2.65;;;2.90;99.90;;;;;;4970868;28;20051;-77
2023/02/06 07:34:01;;;;;;;4.03;2.50;;;2.80;99.90;;;;;;4939750;29;20102;-77
2023/02/06 07:36:27;;;;;;;4.65;3.22;;;2.70;99.90;;;;;;4940480;29;20143;-78
2023/02/06 07:38:54;;;;;;;6.97;2.67;;;2.70;99.90;;;;;;4941020;28;20569;-76
2023/02/06 07:41:21;;;;;;;4.75;2.95;;;2.70;99.90;;;;;;4955530;28;20122;-77
2023/02/06 07:43:48;;;;;;;5.55;3.22;;;2.70;99.90;;;;;;4971090;28;20175;-77
2023/02/06 07:46:15;;;;;;;5.78;2.70;;;2.70;99.90;;;;;;4971622;28;20258;-78
2023/02/06 07:48:42;;;;;;;5.22;2.83;;;2.70;99.90;;;;;;4941052;28;20153;-77
2023/02/06 07:51:09;;;;;;;5.75;3.13;;;2.70;99.90;;;;;;4971593;28;20165;-77
2023/02/06 07:53:36;;;;;;;5.53;3.53;;;2.70;99.90;;;;;;4961019;28;20057;-77
2023/02/06 07:56:12;;;;;;;5.20;3.08;;;2.60;99.90;;;;;;4972505;28;20058;-77
2023/02/06 07:58:39;;;;;;;6.45;4.03;;;2.60;99.90;;;;;;4937915;29;20484;-77
2023/02/06 08:01:05;;;;;;;5.85;3.47;;;2.60;99.90;;;;;;4974194;28;20459;-77
2023/02/06 08:03:32;;;;;;;5.65;3.05;;;2.50;99.90;;;;;;4949144;28;20540;-77
2023/02/06 08:05:59;;;;;;;4.60;2.63;;;2.50;99.90;;;;;;4966819;28;20055;-77
2023/02/06 08:08:26;;;;;;;5.30;2.72;;;2.50;99.90;;;;;;4975091;28;20070;-77
2023/02/06 08:10:53;;;;;;;5.30;3.05;;;2.50;99.90;;;;;;4945499;28;20055;-77
2023/02/06 08:13:19;;;;;;;4.50;3.03;;;2.40;99.90;;;;;;4939996;28;20499;-77
2023/02/06 08:15:46;;;;;;;5.72;3.10;;;2.40;99.90;;;;;;4959562;28;20093;-77
2023/02/06 08:18:13;;;;;;;6.32;2.83;;;2.40;99.90;;;;;;4943430;29;20083;-77
2023/02/06 08:20:40;;;;;;;4.53;2.83;;;2.30;99.90;;;;;;4946708;28;20126;-77
2023/02/06 08:23:06;;;;;;;5.25;3.35;;;2.30;99.90;;;;;;4943567;28;20603;-77
2023/02/06 08:25:33;;;;;;;5.03;3.22;;;2.30;99.90;;;;;;4926901;29;20051;-77
2023/02/06 08:28:00;;;;;;;3.95;2.60;;;2.30;99.90;;;;;;4942559;29;20578;-78
2023/02/06 08:30:27;;;;;;;4.43;2.72;;;2.30;99.90;;;;;;4943576;28;20094;-77
2023/02/06 08:32:55;;;;;;;4.25;3.05;;;2.30;99.90;;;;;;4943831;28;20090;-77
2023/02/06 08:35:21;;;;;;;5.22;3.35;;;2.40;99.90;;;;;;4975289;28;20138;-77
2023/02/06 08:37:48;;;;;;;5.07;2.88;;;2.40;99.90;;;;;;4975387;28;20058;-77
2023/02/06 08:40:15;;;;;;;6.63;3.40;;;2.50;99.90;;;;;;4946984;28;20055;-77
2023/02/06 08:42:41;;;;;;;5.03;3.13;;;2.50;99.90;;;;;;4966214;28;20090;-77
2023/02/06 08:45:08;;;;;;;4.60;3.33;;;2.50;99.90;;;;;;4973993;28;20170;-77
2023/02/06 08:47:35;;;;;;;6.95;3.13;;;2.50;99.90;;;;;;4944143;28;20333;-78
2023/02/06 08:50:02;;;;;;;3.65;2.55;;;2.50;99.90;;;;;;4939844;28;20186;-77
2023/02/06 08:52:29;;;;;;;4.70;2.70;;;2.50;99.90;;;;;;4941771;29;20131;-77
2023/02/06 08:54:56;;;;;;;4.78;2.88;;;2.60;99.90;;;;;;4943637;29;20047;-78
2023/02/06 08:57:22;;;;;;;4.32;2.90;;;2.60;99.90;;;;;;4980151;28;20055;-77
2023/02/06 08:59:50;;;;;;;4.20;2.40;;;2.60;99.90;;;;;;4941347;28;20055;-74
2023/02/06 09:02:16;;;;;;;3.80;2.28;;;2.60;99.90;;;;;;4925078;28;20125;-78
2023/02/06 09:04:43;;;;;;;4.20;2.90;;;2.70;99.90;;;;;;4971309;28;20134;-77
2023/02/06 09:07:10;;;;;;;3.42;1.70;;;2.60;99.90;;;;;;4938637;29;20381;-77
2023/02/06 09:09:37;;;;;;;4.47;2.20;;;2.70;99.90;;;;;;4943821;28;20047;-77
2023/02/06 09:12:04;;;;;;;3.53;2.63;;;2.70;99.90;;;;;;4953172;28;20110;-76
2023/02/06 09:14:31;;;;;;;4.72;2.50;;;2.70;99.90;;;;;;4968745;28;20155;-77
2023/02/06 09:16:57;;;;;;;4.10;2.25;;;2.80;99.90;;;;;;4969064;28;20055;-77
2023/02/06 09:19:27;;;;;;;3.58;2.53;;;2.90;99.90;;;;;;4968436;28;20491;-77
2023/02/06 09:21:54;;;;;;;3.63;2.30;;;2.90;99.90;;;;;;4946418;28;20074;-77
2023/02/06 09:24:20;;;;;;;3.40;2.13;;;3.00;99.90;;;;;;4968189;28;20265;-77
2023/02/06 09:26:47;;;;;;;4.00;2.00;;;3.00;99.90;;;;;;4937854;28;20057;-77
2023/02/06 09:29:30;;;;;;;3.92;2.33;;;3.20;99.90;;;;;;4938115;29;20609;-77
2023/02/06 09:31:57;;;;;;;6.32;2.97;;;3.30;99.90;;;;;;4939045;28;20047;-77
2023/02/06 09:34:24;;;;;;;4.75;2.17;;;3.30;99.90;;;;;;4967721;28;20050;-76
2023/02/06 09:36:55;;;;;;;4.78;2.65;;;3.50;99.90;;;;;;4967808;28;20051;-75
2023/02/06 09:39:22;;;;;;;3.33;2.05;;;3.50;99.90;;;;;;4952436;28;20124;-76
2023/02/06 09:41:54;;;;;;;5.15;2.45;;;3.60;99.90;;;;;;4942078;28;20051;-76
2023/02/06 09:44:39;;;;;;;5.55;2.47;;;3.70;99.90;;;;;;4955163;28;20091;-77
2023/02/06 09:47:25;;;;;;;3.90;2.15;;;3.80;99.90;;;;;;4942296;29;20118;-77
2023/02/06 09:50:15;;;;;;;3.13;1.75;;;3.90;99.90;;;;;;4940305;29;20199;-77
2023/02/06 09:53:04;;;;;;;3.47;2.25;;;4.00;99.90;;;;;;4942591;28;20087;-77
2023/02/06 09:55:44;;;;;;;4.22;2.20;;;4.10;99.90;;;;;;4971369;28;20097;-76
2023/02/06 09:58:18;;;;;;;;;;;4.20;99.90;;;;;;4971570;28;20051;-76
2023/02/06 10:00:47;;;;;;;2.90;1.42;;;4.20;99.90;;;;;;4942713;29;19926;-77
2023/02/06 10:03:42;;;;;;;4.15;1.40;;;4.30;99.90;;;;;;4972410;28;20051;-77
2023/02/06 10:06:21;;;;;;;3.78;1.45;;;4.40;99.90;;;;;;4941478;29;20059;-77
2023/02/06 10:08:57;;;;;;;4.57;1.58;;;4.40;99.90;;;;;;4939397;28;20403;-76
2023/02/06 10:11:45;;;;;;;2.03;1.23;;;4.50;99.90;;;;;;4955862;28;20055;-76
2023/02/06 10:14:21;;;;;;;1.75;1.02;;;4.50;99.90;;;;;;4971733;28;20520;-77
2023/02/06 10:16:50;;;;;;;2.28;1.10;;;4.60;99.90;;;;;;4971358;28;20487;-77
2023/02/06 10:19:37;;;;;;;1.77;1.00;;;4.60;99.90;;;;;;4972770;28;20066;-77
2023/02/06 10:22:50;;;;;;;2.35;1.20;;;4.70;99.90;;;;;;4971195;28;20101;-77
2023/02/06 10:25:48;;;;;;;3.40;0.90;;;4.70;99.90;;;;;;4911098;29;20047;-77
2023/02/06 10:28:23;;;;;;;1.20;0.80;;;4.90;99.90;;;;;;4916639;29;20093;-77
2023/02/06 10:31:23;;;;;;;2.22;1.20;;;5.00;99.90;;;;;;4940750;29;20476;-77
2023/02/06 10:34:19;;;;;;;1.77;0.85;;;5.10;99.90;;;;;;4955277;28;20345;-76
2023/02/06 10:37:13;;;;;;;2.78;1.10;;;5.20;99.90;;;;;;4941768;28;20757;-76
2023/02/06 10:39:58;;;;;;;1.42;0.90;;;5.30;99.90;;;;;;4970039;28;20102;-77
2023/02/06 10:42:37;;;;;;;1.38;0.73;;;5.30;99.90;;;;;;4941417;29;20067;-77
2023/02/06 10:45:23;;;;;;;2.15;1.05;;;5.40;99.90;;;;;;4941652;28;20047;-77
2023/02/06 10:48:00;;;;;;;1.85;1.10;;;5.50;99.90;;;;;;4972273;28;20054;-77
2023/02/06 10:50:28;;;;;;;1.50;0.80;;;5.60;99.90;;;;;;4975039;28;20441;-77
2023/02/06 10:52:57;;;;;;;1.88;0.82;;;5.80;99.90;;;;;;4986424;28;20211;-77
2023/02/06 10:55:44;;;;;;;4.05;1.73;;;5.90;99.90;;;;;;4956271;28;20146;-76
2023/02/06 10:58:17;;;;;;;2.28;1.30;;;6.00;99.90;;;;;;4970643;28;20059;-76
2023/02/06 11:00:44;;;;;;;2.63;1.00;;;6.20;99.90;;;;;;4939691;29;20133;-76
2023/02/06 11:03:16;;;;;;;3.22;1.20;;;6.30;99.90;;;;;;4955117;28;20078;-77
2023/02/06 11:05:43;;;;;;;1.35;0.80;;;6.50;99.90;;;;;;4940037;29;20494;-77
2023/02/06 11:08:47;;;;;;;2.40;1.15;;;6.60;99.90;;;;;;4974589;28;20058;-77
2023/02/06 11:11:24;;;;;;;5.90;1.67;;;6.80;99.90;;;;;;4979099;28;20061;-77
2023/02/06 11:14:13;;;;;;;3.72;1.13;;;7.10;99.90;;;;;;4978778;28;20061;-77
2023/02/06 11:16:40;;;;;;;0.82;0.65;;;7.20;99.90;;;;;;4972158;28;20250;-77
2023/02/06 11:19:33;;;;;;;3.17;0.93;;;7.20;99.90;;;;;;4955363;28;20047;-78
2023/02/06 11:22:06;;;;;;;3.25;1.10;;;7.30;99.90;;;;;;4969771;28;20254;-78
2023/02/06 11:24:33;;;;;;;2.00;0.68;;;7.40;99.90;;;;;;4939680;29;20459;-77
2023/02/06 11:27:01;;;;;;;1.77;0.60;;;7.50;99.90;;;;;;4955242;28;20051;-76
2023/02/06 11:29:34;;;;;;;1.02;0.40;;;7.50;99.90;;;;;;4954887;28;20054;-77
2023/02/06 11:32:06;;;;;;;2.08;0.85;;;7.70;99.90;;;;;;4956119;28;20148;-76
2023/02/06 11:35:20;;;;;;;2.70;1.17;;;7.80;99.90;;;;;;4957765;28;20070;-76
2023/02/06 11:37:48;;;;;;;3.55;1.00;;;8.00;99.90;;;;;;4958323;28;20130;-76
2023/02/06 11:40:18;;;;;;;3.10;1.35;;;8.10;99.90;;;;;;4959605;28;20051;-76
2023/02/06 11:42:51;;;;;;;2.95;1.65;;;8.20;99.90;;;;;;4944174;29;20058;-77
2023/02/06 11:45:21;;;;;;;3.78;1.30;;;8.40;99.90;;;;;;4975496;28;20089;-76
2023/02/06 11:47:48;;;;;;;4.13;1.38;;;8.50;99.90;;;;;;4945633;29;20158;-76
2023/02/06 11:50:21;;;;;;;0.95;0.40;;;8.60;99.90;;;;;;4959757;28;20047;-77
2023/02/06 11:52:48;;;;;;;1.40;0.50;;;8.70;99.90;;;;;;4943925;29;20067;-77
2023/02/06 11:55:29;;;;;;;1.05;0.50;;;8.90;99.90;;;;;;4944008;28;20134;-77
2023/02/06 11:58:09;;;;;;;1.55;0.40;;;9.20;99.90;;;;;;4973884;28;20147;-77
2023/02/06 12:00:37;;;;;;;1.55;0.70;;;9.40;99.90;;;;;;4974285;28;20055;-76
2023/02/06 12:03:05;;;;;;;0.90;0.40;;;9.70;99.90;;;;;;4959255;28;20134;-76
2023/02/06 12:05:39;;;;;;;0.93;0.50;;;10.10;99.90;;;;;;4943601;29;20110;-76
2023/02/06 12:08:11;;;;;;;3.03;0.70;;;10.40;99.90;;;;;;4959268;28;20161;-76
2023/02/06 12:10:41;;;;;;;2.42;1.52;;;10.60;99.90;;;;;;4959951;28;20055;-76
2023/02/06 12:13:15;;;;;;;1.52;0.75;;;10.90;99.90;;;;;;4957809;28;20051;-77
2023/02/06 12:15:43;;;;;;;1.40;0.98;;;11.20;99.90;;;;;;4974193;28;20138;-76
2023/02/06 12:18:15;;;;;;;1.00;0.70;;;11.60;99.90;;;;;;4939128;28;20143;-77
2023/02/06 12:20:55;;;;;;;1.70;0.80;;;11.80;99.90;;;;;;4956214;28;20091;-77
2023/02/06 12:23:31;;;;;;;1.80;0.88;;;12.10;99.90;;;;;;4931963;29;20153;-76
2023/02/06 12:25:59;;;;;;;1.58;0.80;;;12.40;99.90;;;;;;4975567;28;20129;-77
2023/02/06 12:28:51;;;;;;;1.02;0.60;;;12.70;99.90;;;;;;4943062;29;20570;-77
2023/02/06 12:31:30;;;;;;;1.95;0.88;;;13.00;98.80;;;;;;4956248;28;20133;-77
2023/02/06 12:34:27;;;;;;;1.88;0.73;;;12.50;98.10;;;;;;4957388;28;20642;-76
2023/02/06 12:37:09;;;;;;;2.03;1.00;;;12.80;97.70;;;;;;4942763;28;20043;-76
2023/02/06 12:39:36;;;;;;;2.85;1.00;;;12.90;97.70;;;;;;4957201;28;20066;-77
2023/02/06 12:42:17;;;;;;;2.70;1.00;;;12.90;96.90;;;;;;4959160;28;20157;-77
2023/02/06 12:44:45;;;;;;;3.67;1.15;;;13.00;96.40;;;;;;4973006;28;20063;-77
2023/02/06 12:47:21;;;;;;;3.35;1.10;;;13.10;96.70;;;;;;4974205;28;20051;-78
2023/02/06 12:50:04;;;;;;;4.10;1.27;;;13.50;96.20;;;;;;4974783;28;20106;-77
2023/02/06 12:52:42;;;;;;;2.23;1.10;;;13.60;96.10;;;;;;4943022;29;20047;-77
2023/02/06 12:55:14;;;;;;;2.33;1.00;;;14.00;96.20;;;;;;4973802;28;20099;-77
2023/02/06 12:57:41;;;;;;;1.20;0.70;;;14.40;95.80;;;;;;4974387;28;20154;-77
2023/02/06 13:00:25;;;;;;;2.78;1.17;;;14.70;94.00;;;;;;4957659;28;20943;-77
2023/02/06 13:03:20;;;;;;;2.60;1.13;;;14.90;93.30;;;;;;4974543;28;20059;-77
2023/02/06 13:06:01;;;;;;;3.80;1.35;;;15.00;94.30;;;;;;4972709;28;20062;-78
2023/02/06 13:08:35;;;;;;;1.88;0.85;;;14.90;93.20;;;;;;4941601;28;20138;-77
2023/02/06 13:11:22;;;;;;;2.33;1.45;;;15.20;94.20;;;;;;4944560;29;20044;-77
2023/02/06 13:13:48;;;;;;;2.05;0.82;;;15.20;93.20;;;;;;4956784;28;20061;-78
2023/02/06 13:16:15;;;;;;;1.85;0.82;;;15.50;93.30;;;;;;4958523;28;20127;-78
2023/02/06 13:18:49;;;;;;;2.20;0.85;;;15.90;93.40;;;;;;4973855;28;20487;-78